Time;durP1;ratioP1;P1;durP2;ratioP2;P2;SDS_P1;SDS_P2;PMS_P1;PMS_P2;Temp;Humidity;BMP_temperature;BMP_pressure;BME280_temperature;BME280_humidity;BME280_pressure;Samples;Min_cycle;Max_cycle;Signal;HPM_P1;HPM_P2
2022/01/08 00:00:17;;;;;;;3.35;1.80;;;;;;;;;;5104556;28;20032;-47
2022/01/08 00:02:44;;;;;;;4.43;2.63;;;;;;;;;;5107464;28;20212;-46
2022/01/08 00:05:11;;;;;;;2.92;2.10;;;;;;;;;;5104482;28;20506;-46
2022/01/08 00:07:37;;;;;;;3.28;1.63;;;;;;;;;;5108328;28;20058;-47
2022/01/08 00:10:04;;;;;;;2.67;1.45;;;;;;;;;;5085003;28;20016;-48
2022/01/08 00:12:30;;;;;;;3.10;1.70;;;;;;;;;;5087012;28;20032;-46
2022/01/08 00:14:56;;;;;;;3.42;1.70;;;;;;;;;;5087829;28;20347;-47
2022/01/08 00:17:23;;;;;;;2.45;1.38;;;;;;;;;;5087284;28;20066;-46
2022/01/08 00:19:52;;;;;;;4.10;1.42;;;;;;;;;;5069984;28;20024;-47
2022/01/08 00:22:19;;;;;;;3.45;1.38;;;;;;;;;;5090045;28;20518;-49
2022/01/08 00:24:45;;;;;;;3.63;1.92;;;;;;;;;;5107922;28;20028;-49
2022/01/08 00:27:11;;;;;;;3.65;1.80;;;;;;;;;;5090375;28;20086;-47
2022/01/08 00:29:39;;;;;;;2.70;1.60;;;;;;;;;;5086505;28;20058;-47
2022/01/08 00:32:06;;;;;;;3.95;1.90;;;;;;;;;;5069001;28;20031;-47
2022/01/08 00:34:32;;;;;;;5.85;2.15;;;;;;;;;;5087429;28;20055;-47
2022/01/08 00:36:58;;;;;;;5.15;2.10;;;;;;;;;;5069241;28;20028;-47
2022/01/08 00:39:25;;;;;;;6.68;2.63;;;;;;;;;;5097457;28;20031;-47
2022/01/08 00:41:52;;;;;;;3.67;2.20;;;;;;;;;;5093937;28;20644;-46
2022/01/08 00:44:19;;;;;;;4.25;1.80;;;;;;;;;;5087730;28;20070;-46
2022/01/08 00:46:45;;;;;;;4.43;2.05;;;;;;;;;;5086258;28;20087;-48
2022/01/08 00:49:11;;;;;;;5.25;2.45;;;;;;;;;;5086750;28;20414;-48
2022/01/08 00:51:37;;;;;;;3.95;2.15;;;;;;;;;;5087230;28;20028;-49
2022/01/08 00:54:04;;;;;;;6.05;2.58;;;;;;;;;;5068971;28;20031;-48
2022/01/08 00:56:30;;;;;;;6.40;2.63;;;;;;;;;;5085112;28;20502;-48
2022/01/08 00:58:57;;;;;;;5.00;3.08;;;;;;;;;;5086857;28;20063;-46
2022/01/08 01:01:24;;;;;;;7.80;3.78;;;;;;;;;;5086765;28;20426;-47
2022/01/08 01:03:50;;;;;;;6.63;3.15;;;;;;;;;;5087216;28;20530;-49
2022/01/08 01:06:16;;;;;;;5.88;3.17;;;;;;;;;;5086375;28;20028;-46
2022/01/08 01:08:42;;;;;;;5.63;3.33;;;;;;;;;;5101428;28;20039;-46
2022/01/08 01:11:09;;;;;;;5.93;2.88;;;;;;;;;;5096644;28;20027;-46
2022/01/08 01:13:36;;;;;;;7.88;3.83;;;;;;;;;;5048353;28;20372;-46
2022/01/08 01:16:03;;;;;;;6.95;3.03;;;;;;;;;;5066670;28;20500;-46
2022/01/08 01:18:30;;;;;;;8.93;3.83;;;;;;;;;;5083371;28;20453;-47
2022/01/08 01:20:57;;;;;;;6.78;3.00;;;;;;;;;;5066221;28;20048;-47
2022/01/08 01:23:31;;;;;;;8.52;3.35;;;;;;;;;;5065681;28;20025;-46
2022/01/08 01:26:01;;;;;;;7.40;3.40;;;;;;;;;;5071557;28;20506;-45
2022/01/08 01:47:12;;;;;;;5.25;2.67;;;;;;;;;;5096948;28;20074;-48
2022/01/08 01:49:40;;;;;;;5.38;2.40;;;;;;;;;;5077325;28;20146;-46
2022/01/08 01:52:07;;;;;;;6.60;2.90;;;;;;;;;;5067117;28;20035;-46
2022/01/08 01:54:35;;;;;;;6.07;2.88;;;;;;;;;;5084709;28;20020;-46
2022/01/08 01:57:01;;;;;;;5.28;3.03;;;;;;;;;;5101190;28;20031;-46
2022/01/08 01:59:28;;;;;;;6.90;3.47;;;;;;;;;;5087600;28;20057;-46
2022/01/08 02:01:56;;;;;;;8.02;2.90;;;;;;;;;;5105982;28;20403;-46
2022/01/08 02:04:22;;;;;;;8.15;2.92;;;;;;;;;;5106349;28;20031;-46
2022/01/08 02:06:48;;;;;;;7.22;2.72;;;;;;;;;;5104291;28;20537;-46
2022/01/08 02:09:14;;;;;;;6.85;2.65;;;;;;;;;;5087048;28;20027;-50
2022/01/08 02:11:56;;;;;;;7.63;3.03;;;;;;;;;;5093598;28;20031;-46
2022/01/08 02:14:22;;;;;;;6.30;2.70;;;;;;;;;;5073840;28;20039;-46
2022/01/08 02:16:49;;;;;;;7.57;3.42;;;;;;;;;;5103875;28;20023;-49
2022/01/08 02:19:16;;;;;;;8.60;3.22;;;;;;;;;;5105639;28;20030;-46
2022/01/08 02:21:53;;;;;;;8.20;3.08;;;;;;;;;;5105352;28;20027;-46
2022/01/08 02:24:19;;;;;;;8.93;3.13;;;;;;;;;;5105287;28;20054;-46
2022/01/08 02:26:46;;;;;;;10.38;3.42;;;;;;;;;;5073253;28;20399;-46
2022/01/08 02:29:13;;;;;;;7.32;2.47;;;;;;;;;;5084919;28;20407;-46
2022/01/08 02:31:40;;;;;;;5.65;2.40;;;;;;;;;;5065725;28;20032;-46
2022/01/08 02:34:06;;;;;;;4.22;2.13;;;;;;;;;;5097928;28;20442;-45
2022/01/08 02:36:33;;;;;;;5.53;2.40;;;;;;;;;;5068984;28;20039;-45
2022/01/08 02:38:59;;;;;;;6.18;2.20;;;;;;;;;;5085193;28;20515;-47
2022/01/08 02:41:27;;;;;;;4.15;1.88;;;;;;;;;;5091704;28;20036;-46
2022/01/08 02:43:53;;;;;;;3.65;1.60;;;;;;;;;;5089531;28;20016;-45
2022/01/08 02:46:23;;;;;;;3.88;1.38;;;;;;;;;;5097768;28;20482;-50
2022/01/08 02:48:49;;;;;;;3.50;1.45;;;;;;;;;;5101131;28;20028;-45
2022/01/08 02:51:15;;;;;;;5.22;1.80;;;;;;;;;;5097943;28;20027;-48
2022/01/08 02:53:41;;;;;;;3.10;1.33;;;;;;;;;;5089076;28;20031;-45
2022/01/08 02:56:07;;;;;;;3.72;1.35;;;;;;;;;;5091312;28;20067;-49
2022/01/08 02:58:33;;;;;;;4.90;1.42;;;;;;;;;;5087293;28;20024;-49
2022/01/08 03:01:00;;;;;;;4.38;1.25;;;;;;;;;;5085387;28;20410;-46
2022/01/08 03:03:26;;;;;;;2.97;1.60;;;;;;;;;;5084383;28;20031;-47
2022/01/08 03:05:52;;;;;;;4.95;1.52;;;;;;;;;;5086746;28;20053;-46
2022/01/08 03:08:19;;;;;;;4.53;1.42;;;;;;;;;;5086296;28;20040;-47
2022/01/08 03:10:45;;;;;;;2.28;1.27;;;;;;;;;;5086360;28;20029;-47
2022/01/08 03:13:11;;;;;;;4.55;1.42;;;;;;;;;;5085336;28;20024;-47
2022/01/08 03:15:39;;;;;;;2.10;1.20;;;;;;;;;;5086317;28;20712;-47
2022/01/08 03:18:06;;;;;;;3.45;1.42;;;;;;;;;;5087024;28;20020;-46
2022/01/08 03:20:34;;;;;;;2.58;1.58;;;;;;;;;;5086951;28;20495;-48
2022/01/08 03:23:03;;;;;;;1.45;1.10;;;;;;;;;;5097726;28;20046;-45
2022/01/08 03:25:30;;;;;;;3.50;1.35;;;;;;;;;;5101184;28;20380;-47
2022/01/08 03:27:56;;;;;;;2.67;1.20;;;;;;;;;;5104958;28;20889;-47
2022/01/08 03:30:24;;;;;;;1.77;1.20;;;;;;;;;;5106475;28;20123;-47
2022/01/08 03:32:51;;;;;;;3.08;1.20;;;;;;;;;;5106798;28;20107;-45
2022/01/08 03:35:17;;;;;;;3.72;1.67;;;;;;;;;;5091626;28;20054;-47
2022/01/08 03:37:43;;;;;;;2.30;1.08;;;;;;;;;;5086038;28;20036;-48
2022/01/08 03:40:10;;;;;;;5.30;1.48;;;;;;;;;;5086153;28;20024;-48
2022/01/08 03:42:36;;;;;;;2.72;1.30;;;;;;;;;;5098232;28;20498;-46
2022/01/08 03:45:02;;;;;;;3.10;1.38;;;;;;;;;;5076668;28;20144;-45
2022/01/08 03:49:54;;;;;;;3.38;1.30;;;;;;;;;;5086423;28;20107;-46
2022/01/08 03:52:21;;;;;;;2.03;1.15;;;;;;;;;;5086115;28;20028;-45
2022/01/08 03:54:47;;;;;;;2.13;1.20;;;;;;;;;;5085284;28;20036;-49
2022/01/08 03:57:13;;;;;;;3.40;1.30;;;;;;;;;;5089973;28;20063;-48
2022/01/08 03:59:39;;;;;;;2.95;1.08;;;;;;;;;;5106361;28;20402;-47
2022/01/08 04:02:05;;;;;;;3.17;1.17;;;;;;;;;;5106897;28;20030;-46
2022/01/08 04:04:32;;;;;;;4.07;1.42;;;;;;;;;;5101367;28;20031;-45
2022/01/08 04:06:58;;;;;;;3.40;1.52;;;;;;;;;;5106353;28;20104;-49
2022/01/08 04:09:24;;;;;;;2.67;1.13;;;;;;;;;;5106341;28;20138;-49
2022/01/08 04:11:51;;;;;;;3.50;1.23;;;;;;;;;;5090081;28;20040;-45
2022/01/08 04:14:19;;;;;;;4.00;1.50;;;;;;;;;;5084847;28;20035;-49
2022/01/08 04:16:48;;;;;;;3.13;1.20;;;;;;;;;;5085675;28;20052;-48
2022/01/08 04:19:16;;;;;;;2.03;1.10;;;;;;;;;;5085904;28;20020;-45
2022/01/08 04:22:09;;;;;;;2.13;0.90;;;;;;;;;;5085979;28;20024;-48
2022/01/08 04:24:35;;;;;;;1.23;1.00;;;;;;;;;;5102211;28;20455;-49
2022/01/08 04:27:01;;;;;;;1.48;0.93;;;;;;;;;;5091272;28;20028;-50
2022/01/08 04:29:27;;;;;;;2.22;1.13;;;;;;;;;;5085575;28;20028;-50
2022/01/08 04:31:53;;;;;;;0.80;0.80;;;;;;;;;;5085761;28;20608;-47
2022/01/08 04:34:21;;;;;;;0.70;0.70;;;;;;;;;;5084784;28;20791;-48
2022/01/08 04:36:47;;;;;;;0.90;0.80;;;;;;;;;;5098534;28;20031;-47
2022/01/08 04:39:13;;;;;;;0.85;0.70;;;;;;;;;;5105862;28;20055;-50
2022/01/08 04:41:41;;;;;;;0.60;0.60;;;;;;;;;;5093691;28;20025;-48
2022/01/08 04:44:09;;;;;;;0.85;0.75;;;;;;;;;;5083673;28;20029;-48
2022/01/08 04:46:35;;;;;;;0.93;0.70;;;;;;;;;;5085970;28;20103;-47
2022/01/08 04:49:01;;;;;;;3.60;0.93;;;;;;;;;;5087208;28;20020;-48
2022/01/08 04:51:27;;;;;;;1.42;0.90;;;;;;;;;;5089108;28;20036;-48
2022/01/08 04:53:53;;;;;;;2.33;1.08;;;;;;;;;;5098076;28;20486;-47
2022/01/08 04:56:19;;;;;;;1.60;0.80;;;;;;;;;;5099762;28;20039;-47
2022/01/08 04:58:45;;;;;;;1.27;0.80;;;;;;;;;;5099534;28;20059;-49
2022/01/08 05:01:12;;;;;;;0.90;0.68;;;;;;;;;;5108807;28;20036;-49
2022/01/08 05:03:38;;;;;;;1.52;0.73;;;;;;;;;;5109505;28;20019;-46
2022/01/08 05:06:04;;;;;;;1.20;0.70;;;;;;;;;;5109801;28;20038;-49
2022/01/08 05:08:30;;;;;;;1.63;1.00;;;;;;;;;;5099655;28;20526;-46
2022/01/08 05:10:56;;;;;;;3.05;1.10;;;;;;;;;;5092913;28;20689;-47
2022/01/08 05:13:22;;;;;;;2.20;1.30;;;;;;;;;;5088125;28;20024;-47
2022/01/08 05:15:49;;;;;;;1.63;1.13;;;;;;;;;;5088097;28;20500;-46
2022/01/08 05:18:15;;;;;;;2.10;1.10;;;;;;;;;;5091046;28;20110;-45
2022/01/08 05:20:45;;;;;;;1.45;0.93;;;;;;;;;;5107674;28;20063;-50
2022/01/08 05:23:11;;;;;;;0.95;0.80;;;;;;;;;;5108872;28;20596;-45
2022/01/08 05:25:39;;;;;;;0.60;0.60;;;;;;;;;;5105453;28;20024;-46
2022/01/08 05:28:05;;;;;;;0.50;0.50;;;;;;;;;;5091478;28;20019;-46
2022/01/08 05:30:31;;;;;;;0.47;0.47;;;;;;;;;;5108450;28;20121;-48
2022/01/08 05:32:57;;;;;;;1.13;0.60;;;;;;;;;;5108731;28;20062;-45
2022/01/08 05:35:24;;;;;;;0.85;0.50;;;;;;;;;;5108407;28;20039;-45
2022/01/08 05:37:51;;;;;;;0.65;0.50;;;;;;;;;;5103361;28;20596;-49
2022/01/08 05:40:18;;;;;;;0.50;0.50;;;;;;;;;;5101831;28;20063;-48
2022/01/08 05:42:44;;;;;;;0.80;0.45;;;;;;;;;;5088411;28;20464;-48
2022/01/08 05:45:10;;;;;;;1.52;0.80;;;;;;;;;;5087704;28;20048;-48
2022/01/08 05:47:36;;;;;;;2.70;1.17;;;;;;;;;;5088777;28;20027;-45
2022/01/08 05:50:03;;;;;;;1.45;0.98;;;;;;;;;;5087795;28;20039;-48
2022/01/08 05:52:29;;;;;;;3.03;1.35;;;;;;;;;;5087947;28;20039;-45
2022/01/08 05:54:55;;;;;;;1.55;0.90;;;;;;;;;;5088052;28;20410;-48
2022/01/08 05:57:21;;;;;;;1.38;0.95;;;;;;;;;;5087059;28;20399;-46
2022/01/08 05:59:47;;;;;;;0.70;0.60;;;;;;;;;;5103559;28;20031;-50
2022/01/08 06:02:13;;;;;;;0.85;0.63;;;;;;;;;;5107953;28;20103;-46
2022/01/08 06:04:40;;;;;;;1.65;0.95;;;;;;;;;;5108336;28;20608;-48
2022/01/08 06:07:06;;;;;;;1.33;0.93;;;;;;;;;;5107570;28;20024;-45
2022/01/08 06:09:32;;;;;;;1.88;0.90;;;;;;;;;;5092464;28;20031;-46
2022/01/08 06:11:58;;;;;;;1.30;0.77;;;;;;;;;;5085384;28;20032;-45
2022/01/08 06:14:24;;;;;;;1.33;0.70;;;;;;;;;;5087247;28;20100;-48
2022/01/08 06:16:50;;;;;;;0.98;0.60;;;;;;;;;;5094629;28;20023;-47
2022/01/08 06:19:16;;;;;;;2.60;0.80;;;;;;;;;;5089260;28;20395;-47
2022/01/08 06:21:42;;;;;;;0.82;0.65;;;;;;;;;;5087504;28;20089;-48
2022/01/08 06:24:08;;;;;;;0.98;0.63;;;;;;;;;;5087651;28;20032;-47
2022/01/08 06:26:35;;;;;;;1.23;0.65;;;;;;;;;;5102721;28;20034;-47
2022/01/08 06:29:01;;;;;;;0.70;0.70;;;;;;;;;;5107702;28;20081;-48
2022/01/08 06:31:27;;;;;;;0.63;0.57;;;;;;;;;;5093230;28;20123;-46
2022/01/08 06:33:54;;;;;;;1.45;0.70;;;;;;;;;;5087146;28;20103;-45
2022/01/08 06:36:22;;;;;;;0.50;0.50;;;;;;;;;;5085841;28;20067;-50
2022/01/08 06:38:48;;;;;;;1.77;0.60;;;;;;;;;;5087245;28;20031;-46
2022/01/08 06:41:15;;;;;;;1.15;0.65;;;;;;;;;;5086280;28;20031;-46
2022/01/08 06:43:41;;;;;;;1.58;0.73;;;;;;;;;;5086849;28;20021;-47
2022/01/08 06:46:07;;;;;;;0.68;0.50;;;;;;;;;;5086181;28;20507;-46
2022/01/08 06:48:33;;;;;;;0.40;0.40;;;;;;;;;;5100258;28;20020;-47
2022/01/08 06:50:59;;;;;;;0.85;0.38;;;;;;;;;;5107489;28;20031;-48
2022/01/08 06:53:25;;;;;;;0.50;0.50;;;;;;;;;;5107003;28;20056;-48
2022/01/08 06:55:51;;;;;;;0.38;0.32;;;;;;;;;;5101599;28;20020;-47
2022/01/08 06:58:20;;;;;;;1.27;0.60;;;;;;;;;;5085644;28;20399;-48
2022/01/08 07:00:46;;;;;;;0.50;0.50;;;;;;;;;;5086665;28;20086;-47
2022/01/08 07:03:12;;;;;;;0.85;0.52;;;;;;;;;;5085453;28;20036;-47
2022/01/08 07:05:38;;;;;;;0.82;0.43;;;;;;;;;;5086737;28;20032;-45
2022/01/08 07:08:04;;;;;;;0.65;0.57;;;;;;;;;;5087217;28;20039;-47
2022/01/08 07:10:32;;;;;;;1.45;0.60;;;;;;;;;;5085191;28;20107;-46
2022/01/08 07:12:58;;;;;;;0.85;0.57;;;;;;;;;;5085536;28;20019;-47
2022/01/08 07:15:24;;;;;;;0.70;0.60;;;;;;;;;;5086297;28;20028;-46
2022/01/08 07:17:50;;;;;;;0.68;0.68;;;;;;;;;;5086718;28;20078;-48
2022/01/08 07:20:16;;;;;;;1.10;0.68;;;;;;;;;;5088427;28;20390;-48
2022/01/08 07:22:42;;;;;;;0.88;0.80;;;;;;;;;;5096007;28;20538;-47
2022/01/08 07:25:10;;;;;;;1.23;0.95;;;;;;;;;;5067791;28;20559;-47
2022/01/08 07:27:36;;;;;;;0.88;0.73;;;;;;;;;;5086412;28;20355;-47
2022/01/08 07:30:04;;;;;;;1.73;1.02;;;;;;;;;;5087041;28;20368;-50
2022/01/08 07:32:30;;;;;;;3.00;1.00;;;;;;;;;;5085034;28;20513;-46
2022/01/08 07:34:56;;;;;;;1.50;1.02;;;;;;;;;;5086005;28;20032;-47
2022/01/08 07:37:22;;;;;;;1.52;1.02;;;;;;;;;;5102300;28;20028;-48
2022/01/08 07:39:49;;;;;;;3.00;1.10;;;;;;;;;;5106500;28;20034;-50
2022/01/08 07:42:15;;;;;;;1.75;1.15;;;;;;;;;;5088866;28;20082;-48
2022/01/08 07:44:41;;;;;;;1.75;1.15;;;;;;;;;;5086305;28;20036;-48
2022/01/08 07:47:07;;;;;;;1.58;0.98;;;;;;;;;;5086289;28;20025;-47
2022/01/08 07:49:33;;;;;;;1.63;1.00;;;;;;;;;;5106013;28;20527;-50
2022/01/08 07:51:59;;;;;;;2.70;1.50;;;;;;;;;;5106863;28;20023;-47
2022/01/08 07:54:26;;;;;;;1.83;1.20;;;;;;;;;;5106343;28;20055;-46
2022/01/08 07:56:52;;;;;;;4.88;2.30;;;;;;;;;;5091169;28;20576;-46
2022/01/08 07:59:18;;;;;;;6.38;2.60;;;;;;;;;;5085386;28;20626;-46
2022/01/08 08:01:44;;;;;;;5.05;2.67;;;;;;;;;;5085808;28;20379;-45
2022/01/08 08:04:10;;;;;;;4.85;2.45;;;;;;;;;;5083535;28;20066;-47
2022/01/08 08:06:47;;;;;;;4.28;2.47;;;;;;;;;;5085469;28;20032;-45
2022/01/08 08:09:13;;;;;;;3.65;1.75;;;;;;;;;;5085414;28;20036;-46
2022/01/08 08:11:39;;;;;;;3.53;2.00;;;;;;;;;;5085295;28;20031;-46
2022/01/08 08:14:05;;;;;;;2.35;1.50;;;;;;;;;;5084556;28;20717;-47
2022/01/08 08:16:31;;;;;;;3.35;1.50;;;;;;;;;;5086237;28;20028;-49
2022/01/08 08:18:57;;;;;;;4.43;2.00;;;;;;;;;;5089017;28;20068;-49
2022/01/08 08:21:24;;;;;;;4.35;2.45;;;;;;;;;;5083503;28;20099;-47
2022/01/08 08:23:50;;;;;;;6.38;3.15;;;;;;;;;;5089960;28;20032;-47
2022/01/08 08:26:16;;;;;;;5.10;2.40;;;;;;;;;;5071234;28;20024;-47
2022/01/08 08:28:42;;;;;;;5.28;2.38;;;;;;;;;;5087132;28;20106;-50
2022/01/08 08:31:10;;;;;;;3.85;2.28;;;;;;;;;;5083156;28;20024;-49
2022/01/08 08:33:36;;;;;;;3.53;2.13;;;;;;;;;;5090770;28;20114;-47
2022/01/08 08:36:02;;;;;;;4.07;2.22;;;;;;;;;;5100816;28;20391;-48
2022/01/08 08:38:28;;;;;;;2.28;1.50;;;;;;;;;;5100059;28;20036;-49
2022/01/08 08:40:54;;;;;;;3.55;2.05;;;;;;;;;;5089380;28;20020;-49
2022/01/08 08:43:20;;;;;;;3.05;1.70;;;;;;;;;;5089476;28;20058;-46
2022/01/08 08:45:47;;;;;;;3.35;1.50;;;;;;;;;;5093804;28;20024;-46
2022/01/08 08:48:13;;;;;;;2.88;1.38;;;;;;;;;;5089274;28;20451;-48
2022/01/08 08:50:39;;;;;;;2.15;1.23;;;;;;;;;;5090155;28;20016;-47
2022/01/08 08:53:06;;;;;;;2.30;1.30;;;;;;;;;;5088759;28;20036;-47
2022/01/08 08:55:32;;;;;;;1.88;1.27;;;;;;;;;;5089958;28;20096;-49
2022/01/08 08:57:59;;;;;;;3.78;1.10;;;;;;;;;;5089681;28;20036;-51
2022/01/08 09:00:25;;;;;;;2.08;1.05;;;;;;;;;;5088432;28;20043;-48
2022/01/08 09:02:51;;;;;;;1.30;0.95;;;;;;;;;;5098499;28;20028;-50
2022/01/08 09:05:17;;;;;;;3.42;1.10;;;;;;;;;;5088420;28;20065;-49
2022/01/08 09:07:45;;;;;;;0.60;0.60;;;;;;;;;;5089563;28;20032;-46
2022/01/08 09:10:12;;;;;;;1.35;0.90;;;;;;;;;;5102690;28;20543;-46
2022/01/08 09:12:39;;;;;;;2.08;1.42;;;;;;;;;;5088167;28;20024;-47
2022/01/08 09:15:09;;;;;;;2.30;1.60;;;;;;;;;;5094397;28;20062;-48
2022/01/08 09:17:38;;;;;;;3.28;1.73;;;;;;;;;;5101445;28;20080;-48
2022/01/08 09:20:05;;;;;;;3.40;1.88;;;;;;;;;;5088232;28;20031;-47
2022/01/08 09:22:31;;;;;;;3.92;2.30;;;;;;;;;;5087483;28;20032;-48
2022/01/08 09:24:57;;;;;;;8.18;3.90;;;;;;;;;;5092107;28;20036;-47
2022/01/08 09:27:23;;;;;;;6.05;3.45;;;;;;;;;;5088244;28;20471;-48
2022/01/08 09:29:50;;;;;;;5.70;3.20;;;;;;;;;;5088941;28;23195;-49
2022/01/08 09:32:17;;;;;;;5.47;3.00;;;;;;;;;;5081245;28;20498;-48
2022/01/08 09:34:44;;;;;;;5.03;2.65;;;;;;;;;;5088479;28;20024;-47
2022/01/08 09:37:11;;;;;;;5.68;2.78;;;;;;;;;;5088104;28;20114;-49
2022/01/08 09:39:39;;;;;;;4.65;2.50;;;;;;;;;;5098910;28;20385;-47
2022/01/08 09:42:07;;;;;;;4.22;2.08;;;;;;;;;;5093730;28;20776;-47
2022/01/08 09:44:35;;;;;;;3.97;2.28;;;;;;;;;;5089881;28;20044;-48
2022/01/08 09:47:01;;;;;;;5.43;2.50;;;;;;;;;;5094229;28;20019;-48
2022/01/08 09:49:27;;;;;;;4.18;2.58;;;;;;;;;;5106916;28;20468;-47
2022/01/08 09:51:54;;;;;;;6.30;3.47;;;;;;;;;;5086570;28;20392;-47
2022/01/08 09:54:20;;;;;;;3.38;2.45;;;;;;;;;;5085581;28;20032;-49
2022/01/08 09:56:47;;;;;;;4.63;2.97;;;;;;;;;;5086870;28;20039;-49
2022/01/08 09:59:13;;;;;;;3.78;2.58;;;;;;;;;;5087348;28;20028;-47
2022/01/08 10:01:39;;;;;;;3.63;2.55;;;;;;;;;;5084806;28;20406;-47
2022/01/08 10:04:06;;;;;;;3.33;1.90;;;;;;;;;;5089099;28;20028;-50
2022/01/08 10:06:34;;;;;;;3.92;2.20;;;;;;;;;;5089210;28;20020;-50
2022/01/08 10:09:01;;;;;;;4.88;3.28;;;;;;;;;;5088201;28;20040;-50
2022/01/08 10:11:30;;;;;;;5.35;2.90;;;;;;;;;;5092776;28;20126;-51
2022/01/08 10:14:03;;;;;;;3.83;2.70;;;;;;;;;;5096822;28;20124;-50
2022/01/08 10:19:21;;;;;;;7.72;5.57;;;;;;;;;;5087622;28;20056;-52
2022/01/08 10:21:48;;;;;;;7.50;4.93;;;;;;;;;;5103786;28;20529;-47
2022/01/08 10:24:18;;;;;;;5.47;3.70;;;;;;;;;;5087983;28;20016;-48
2022/01/08 10:26:45;;;;;;;4.35;3.20;;;;;;;;;;5087986;28;20414;-47
2022/01/08 10:29:16;;;;;;;4.65;3.20;;;;;;;;;;5074824;28;20054;-50
2022/01/08 10:31:42;;;;;;;4.60;2.85;;;;;;;;;;5076981;28;20463;-49
2022/01/08 10:34:11;;;;;;;3.15;2.03;;;;;;;;;;5089602;28;20028;-47
2022/01/08 10:36:39;;;;;;;4.32;2.05;;;;;;;;;;5097610;28;20085;-48
2022/01/08 10:39:09;;;;;;;4.18;2.60;;;;;;;;;;5097423;28;20436;-48
2022/01/08 10:41:39;;;;;;;3.28;2.20;;;;;;;;;;5084030;28;20070;-48
2022/01/08 10:44:06;;;;;;;4.97;2.50;;;;;;;;;;5088271;28;20020;-48
2022/01/08 10:46:33;;;;;;;8.50;5.20;;;;;;;;;;5087581;28;20027;-48
2022/01/08 10:48:59;;;;;;;11.25;6.43;;;;;;;;;;5087005;28;20081;-49
2022/01/08 10:51:27;;;;;;;10.10;5.82;;;;;;;;;;5087705;28;20032;-49
2022/01/08 10:54:05;;;;;;;10.50;5.65;;;;;;;;;;5087364;28;20028;-47
2022/01/08 10:56:33;;;;;;;6.10;4.30;;;;;;;;;;5086305;28;20024;-49
2022/01/08 10:59:01;;;;;;;5.30;3.40;;;;;;;;;;5086955;28;20028;-49
2022/01/08 11:01:41;;;;;;;4.95;2.75;;;;;;;;;;5086470;28;20036;-48
2022/01/08 11:04:08;;;;;;;5.13;2.88;;;;;;;;;;5086106;28;20074;-49
2022/01/08 11:06:48;;;;;;;4.55;2.58;;;;;;;;;;5086787;28;20055;-47
2022/01/08 11:09:14;;;;;;;4.90;2.17;;;;;;;;;;5065891;28;20107;-48
2022/01/08 11:11:43;;;;;;;4.93;2.58;;;;;;;;;;5077440;28;20028;-47
2022/01/08 11:14:21;;;;;;;5.63;2.95;;;;;;;;;;5086325;28;20031;-48
2022/01/08 11:16:47;;;;;;;4.53;2.60;;;;;;;;;;5086066;28;20447;-49
2022/01/08 11:19:13;;;;;;;4.05;2.45;;;;;;;;;;5086025;28;20026;-48
2022/01/08 11:21:40;;;;;;;5.15;2.22;;;;;;;;;;5086245;28;20024;-47
2022/01/08 11:24:06;;;;;;;2.92;1.73;;;;;;;;;;5086604;28;20028;-50
2022/01/08 11:26:33;;;;;;;4.47;2.83;;;;;;;;;;5067722;28;20449;-51
2022/01/08 11:29:01;;;;;;;3.45;2.08;;;;;;;;;;5084352;28;20020;-48
2022/01/08 11:31:29;;;;;;;3.20;1.63;;;;;;;;;;5085643;28;20048;-48
2022/01/08 11:33:59;;;;;;;3.20;2.00;;;;;;;;;;5080121;28;20101;-50
2022/01/08 11:36:25;;;;;;;2.90;1.80;;;;;;;;;;5103166;28;20548;-51
2022/01/08 11:38:55;;;;;;;2.70;2.00;;;;;;;;;;5090752;28;20062;-51
2022/01/08 11:41:22;;;;;;;3.47;1.80;;;;;;;;;;5097071;28;20410;-52
2022/01/08 11:43:50;;;;;;;3.22;2.28;;;;;;;;;;5069648;28;20020;-49
2022/01/08 11:46:17;;;;;;;4.43;2.00;;;;;;;;;;5066746;28;20071;-48
2022/01/08 11:48:45;;;;;;;2.92;1.58;;;;;;;;;;5070713;28;20020;-48
2022/01/08 11:51:17;;;;;;;3.00;1.67;;;;;;;;;;5098034;28;20043;-48
2022/01/08 11:53:50;;;;;;;3.60;1.80;;;;;;;;;;5086804;28;20024;-51
2022/01/08 11:56:29;;;;;;;1.90;1.67;;;;;;;;;;5084957;28;20032;-52
2022/01/08 11:59:08;;;;;;;1.85;1.50;;;;;;;;;;5090193;28;20024;-50
2022/01/08 12:01:34;;;;;;;2.55;1.73;;;;;;;;;;5090643;28;20059;-50
2022/01/08 12:04:01;;;;;;;3.22;1.98;;;;;;;;;;5090263;28;20027;-52
2022/01/08 12:06:32;;;;;;;3.88;1.85;;;;;;;;;;5090050;28;20027;-49
2022/01/08 12:09:11;;;;;;;2.78;1.70;;;;;;;;;;5090243;28;20061;-49
2022/01/08 12:11:37;;;;;;;3.38;1.40;;;;;;;;;;5089386;28;20024;-52
2022/01/08 12:14:10;;;;;;;1.58;1.13;;;;;;;;;;5090788;28;20035;-50
2022/01/08 12:16:41;;;;;;;1.92;1.42;;;;;;;;;;5071894;28;20051;-49
2022/01/08 12:19:08;;;;;;;1.63;1.35;;;;;;;;;;5071883;28;20036;-51
2022/01/08 12:21:36;;;;;;;2.97;1.90;;;;;;;;;;5097414;28;20025;-52
2022/01/08 12:24:20;;;;;;;3.65;2.03;;;;;;;;;;5073445;28;20036;-52
2022/01/08 12:26:47;;;;;;;2.17;1.58;;;;;;;;;;5087051;28;20027;-49
2022/01/08 12:29:31;;;;;;;2.20;1.65;;;;;;;;;;5087160;28;20131;-50
2022/01/08 12:32:16;;;;;;;3.97;2.45;;;;;;;;;;5096898;28;20036;-49
2022/01/08 12:34:48;;;;;;;2.55;1.80;;;;;;;;;;5090306;28;20043;-50
2022/01/08 12:37:15;;;;;;;3.67;1.65;;;;;;;;;;5089938;28;20043;-47
2022/01/08 12:39:44;;;;;;;2.72;1.50;;;;;;;;;;5075315;28;20386;-47
2022/01/08 12:42:19;;;;;;;2.03;1.40;;;;;;;;;;5089980;28;20027;-51
2022/01/08 12:45:04;;;;;;;3.10;1.60;;;;;;;;;;5088659;28;20053;-50
2022/01/08 12:47:40;;;;;;;1.92;1.58;;;;;;;;;;5097700;28;20029;-50
2022/01/08 12:50:21;;;;;;;2.28;1.55;;;;;;;;;;5089549;28;20078;-48
2022/01/08 12:53:06;;;;;;;1.73;1.40;;;;;;;;;;5088350;28;20602;-49
2022/01/08 12:55:33;;;;;;;1.20;1.02;;;;;;;;;;5088736;28;20040;-49
2022/01/08 12:57:59;;;;;;;1.38;1.27;;;;;;;;;;5084185;28;20039;-46
2022/01/08 13:00:26;;;;;;;1.60;1.10;;;;;;;;;;5087242;28;20606;-48
2022/01/08 13:02:52;;;;;;;2.08;1.30;;;;;;;;;;5089944;28;20046;-49
2022/01/08 13:05:18;;;;;;;1.77;1.00;;;;;;;;;;5103849;28;20038;-50
2022/01/08 13:07:48;;;;;;;1.73;1.08;;;;;;;;;;5090108;28;20942;-49
2022/01/08 13:10:14;;;;;;;1.35;0.90;;;;;;;;;;5085567;28;20089;-48
2022/01/08 13:12:40;;;;;;;1.15;0.93;;;;;;;;;;5086421;28;20032;-46
2022/01/08 13:15:06;;;;;;;0.80;0.77;;;;;;;;;;5086510;28;20494;-49
2022/01/08 13:17:32;;;;;;;3.08;1.20;;;;;;;;;;5089111;28;20337;-49
2022/01/08 13:20:04;;;;;;;1.25;1.00;;;;;;;;;;5089384;28;20111;-48
2022/01/08 13:22:31;;;;;;;2.33;1.27;;;;;;;;;;5097834;28;20056;-48
2022/01/08 13:24:58;;;;;;;1.63;1.25;;;;;;;;;;5104899;28;20040;-49
2022/01/08 13:27:26;;;;;;;2.10;1.17;;;;;;;;;;5093982;28;20081;-46
2022/01/08 13:29:54;;;;;;;1.95;1.10;;;;;;;;;;5102616;28;20073;-48
2022/01/08 13:32:21;;;;;;;2.70;1.50;;;;;;;;;;5088105;28;20050;-47
2022/01/08 13:34:58;;;;;;;2.58;1.30;;;;;;;;;;5088382;28;20035;-47
2022/01/08 13:37:28;;;;;;;1.50;1.00;;;;;;;;;;5096221;28;20372;-49
2022/01/08 13:39:56;;;;;;;1.15;1.02;;;;;;;;;;5089370;28;20020;-46
2022/01/08 13:42:30;;;;;;;1.45;1.00;;;;;;;;;;5087987;28;20059;-50
2022/01/08 13:44:59;;;;;;;2.90;1.65;;;;;;;;;;5086675;28;20115;-49
2022/01/08 13:47:25;;;;;;;2.50;0.98;;;;;;;;;;5087717;28;20023;-45
2022/01/08 13:49:53;;;;;;;2.35;1.38;;;;;;;;;;5102390;28;20076;-50
2022/01/08 13:52:27;;;;;;;2.08;1.40;;;;;;;;;;5091084;28;20032;-47
2022/01/08 13:55:07;;;;;;;2.08;1.35;;;;;;;;;;5089139;28;20483;-50
2022/01/08 13:57:34;;;;;;;2.05;1.30;;;;;;;;;;5088165;28;20551;-52
2022/01/08 14:00:14;;;;;;;1.73;1.20;;;;;;;;;;5088632;28;20094;-49
2022/01/08 14:02:40;;;;;;;2.90;1.58;;;;;;;;;;5088475;28;20407;-48
2022/01/08 14:05:07;;;;;;;2.47;1.63;;;;;;;;;;5108078;28;20072;-48
2022/01/08 14:07:37;;;;;;;1.77;1.58;;;;;;;;;;5105385;28;20067;-52
2022/01/08 14:10:03;;;;;;;2.72;1.42;;;;;;;;;;5087030;28;20031;-48
2022/01/08 14:12:30;;;;;;;3.22;1.50;;;;;;;;;;5087737;28;20028;-48
2022/01/08 14:14:56;;;;;;;2.20;1.38;;;;;;;;;;5088688;28;20452;-49
2022/01/08 14:17:22;;;;;;;1.60;0.98;;;;;;;;;;5069119;28;20776;-47
2022/01/08 14:19:49;;;;;;;3.10;1.38;;;;;;;;;;5068485;28;20036;-47
2022/01/08 14:22:22;;;;;;;2.88;1.70;;;;;;;;;;5067708;28;20054;-47
2022/01/08 14:24:51;;;;;;;1.70;1.20;;;;;;;;;;5068706;28;20620;-47
2022/01/08 14:27:19;;;;;;;2.05;1.30;;;;;;;;;;5084823;28;20510;-47
2022/01/08 14:30:10;;;;;;;1.63;1.23;;;;;;;;;;5088320;28;20065;-47
2022/01/08 14:32:37;;;;;;;1.65;1.00;;;;;;;;;;5082054;28;20510;-46
2022/01/08 14:35:03;;;;;;;1.10;0.95;;;;;;;;;;5084006;28;20181;-48
2022/01/08 14:37:36;;;;;;;1.58;1.00;;;;;;;;;;5086062;28;20028;-49
2022/01/08 14:40:22;;;;;;;1.77;1.20;;;;;;;;;;5087889;28;20016;-46
2022/01/08 14:43:02;;;;;;;2.53;1.70;;;;;;;;;;5087812;28;20039;-48
2022/01/08 14:45:29;;;;;;;3.38;2.08;;;;;;;;;;5087550;28;20024;-46
2022/01/08 14:47:58;;;;;;;3.55;1.77;;;;;;;;;;5085429;28;20085;-50
2022/01/08 14:50:32;;;;;;;2.67;1.75;;;;;;;;;;5090393;28;20399;-49
2022/01/08 14:53:04;;;;;;;2.97;1.63;;;;;;;;;;5083274;28;20511;-46
2022/01/08 14:55:34;;;;;;;2.63;1.60;;;;;;;;;;5085831;28;20020;-47
2022/01/08 14:58:00;;;;;;;4.47;2.40;;;;;;;;;;5077715;28;20069;-50
2022/01/08 15:00:28;;;;;;;2.20;1.55;;;;;;;;;;5085884;28;20142;-49
2022/01/08 15:02:54;;;;;;;3.08;1.73;;;;;;;;;;5087559;28;20053;-48
2022/01/08 15:05:20;;;;;;;2.95;2.03;;;;;;;;;;5085084;28;20024;-47
2022/01/08 15:07:46;;;;;;;2.75;1.45;;;;;;;;;;5087032;28;20057;-48
2022/01/08 15:10:13;;;;;;;2.88;1.88;;;;;;;;;;5081814;28;20057;-48